createdAt,value
2022-08-19T00:00:25.415Z,7.40
2022-08-19T00:01:30.340Z,8.10
2022-08-19T00:02:26.359Z,8.00
2022-08-19T00:03:25.346Z,7.80
2022-08-19T00:04:25.432Z,7.60
2022-08-19T00:05:25.304Z,7.90
2022-08-19T00:06:25.362Z,7.90
2022-08-19T00:07:25.340Z,7.70
2022-08-19T00:08:25.307Z,7.90
2022-08-19T00:09:25.262Z,7.70
2022-08-19T00:10:25.256Z,7.90
2022-08-19T00:11:25.987Z,7.90
2022-08-19T00:12:25.239Z,8.00
2022-08-19T00:13:25.280Z,7.90
2022-08-19T00:14:25.207Z,7.90
2022-08-19T00:15:25.221Z,8.10
2022-08-19T00:16:26.448Z,8.00
2022-08-19T00:17:25.171Z,8.10
2022-08-19T00:18:25.191Z,7.70
2022-08-19T00:19:25.155Z,7.40
2022-08-19T00:20:25.156Z,7.80
2022-08-19T00:21:25.174Z,7.90
2022-08-19T00:22:25.130Z,7.90
2022-08-19T00:23:25.109Z,8.10
2022-08-19T00:24:25.130Z,8.20
2022-08-19T00:25:30.270Z,8.10
2022-08-19T00:26:26.111Z,7.70
2022-08-19T00:27:26.839Z,7.60
2022-08-19T00:28:25.063Z,7.60
2022-08-19T00:29:25.045Z,7.90
2022-08-19T00:30:25.033Z,7.90
2022-08-19T00:31:25.023Z,8.00
2022-08-19T00:32:25.036Z,7.50
2022-08-19T00:33:25.012Z,8.20
2022-08-19T00:34:25.025Z,7.80
2022-08-19T00:35:24.975Z,7.90
2022-08-19T00:36:24.974Z,8.20
2022-08-19T00:37:24.968Z,7.50
2022-08-19T00:38:35.114Z,7.80
2022-08-19T00:39:25.946Z,7.90
2022-08-19T00:40:24.937Z,8.00
2022-08-19T00:41:24.909Z,8.10
2022-08-19T00:42:24.977Z,7.80
2022-08-19T00:43:24.900Z,7.90
2022-08-19T00:44:26.817Z,7.90
2022-08-19T00:45:24.860Z,7.50
2022-08-19T00:46:24.853Z,8.30
2022-08-19T00:47:24.841Z,7.90
2022-08-19T00:48:24.881Z,8.00
2022-08-19T00:49:24.846Z,7.90
2022-08-19T00:50:24.857Z,8.20
2022-08-19T00:51:24.801Z,7.50
2022-08-19T00:52:24.805Z,7.60
2022-08-19T00:53:24.789Z,7.10
2022-08-19T00:54:31.039Z,7.50
2022-08-19T00:55:25.752Z,7.90
2022-08-19T00:56:24.754Z,7.30
2022-08-19T00:57:24.753Z,7.20
2022-08-19T00:58:24.716Z,7.70
2022-08-19T00:59:56.208Z,7.70
2022-08-19T01:00:25.755Z,7.40
2022-08-19T01:01:24.786Z,7.70
2022-08-19T01:02:24.685Z,7.80
2022-08-19T01:03:24.675Z,7.70
2022-08-19T01:04:24.668Z,7.70
2022-08-19T01:05:24.674Z,7.60
2022-08-19T01:06:24.665Z,7.70
2022-08-19T01:07:24.638Z,7.20
2022-08-19T01:08:24.646Z,7.30
2022-08-19T01:09:24.601Z,8.10
2022-08-19T01:10:24.617Z,7.30
2022-08-19T01:11:24.653Z,7.50
2022-08-19T01:12:24.568Z,7.50
2022-08-19T01:13:24.612Z,7.60
2022-08-19T01:14:24.582Z,7.60
2022-08-19T01:15:24.552Z,7.50
2022-08-19T01:16:24.531Z,7.90
2022-08-19T01:17:24.559Z,7.50
2022-08-19T01:18:24.514Z,7.70
2022-08-19T01:19:24.491Z,7.10
2022-08-19T01:20:24.506Z,7.80
2022-08-19T01:21:24.483Z,7.30
2022-08-19T01:22:30.071Z,7.20
2022-08-19T01:23:25.452Z,6.90
2022-08-19T01:24:24.492Z,7.90
2022-08-19T01:25:25.113Z,7.10
2022-08-19T01:26:24.438Z,7.00
2022-08-19T01:27:24.420Z,7.50
2022-08-19T01:28:34.158Z,7.20
2022-08-19T01:29:25.420Z,7.20
2022-08-19T01:30:24.396Z,7.30
2022-08-19T01:31:26.831Z,7.50
2022-08-19T01:32:33.713Z,7.60
2022-08-19T01:33:25.402Z,7.50
2022-08-19T01:34:24.363Z,7.90
2022-08-19T01:35:24.364Z,7.90
2022-08-19T01:36:24.330Z,8.10
2022-08-19T01:37:24.952Z,8.00
2022-08-19T01:38:24.322Z,8.90
2022-08-19T01:39:24.298Z,8.00
2022-08-19T01:40:24.280Z,8.90
2022-08-19T01:41:24.262Z,8.80
2022-08-19T01:42:30.166Z,9.00
2022-08-19T01:43:25.260Z,9.60
2022-08-19T01:44:24.259Z,9.20
2022-08-19T01:45:24.265Z,8.80
2022-08-19T01:46:25.133Z,9.20
2022-08-19T01:47:24.185Z,9.30
2022-08-19T01:48:24.188Z,8.40
2022-08-19T01:49:24.166Z,9.10
2022-08-19T01:50:24.188Z,9.00
2022-08-19T01:51:25.103Z,8.70
2022-08-19T01:52:24.140Z,8.20
2022-08-19T01:53:24.134Z,8.70
2022-08-19T01:54:27.535Z,8.70
2022-08-19T01:55:24.107Z,9.10
2022-08-19T01:56:24.096Z,8.70
2022-08-19T01:57:24.085Z,9.10
2022-08-19T01:58:24.081Z,8.90
2022-08-19T01:59:25.044Z,8.90
2022-08-19T02:00:24.048Z,8.60
2022-08-19T02:01:24.096Z,8.70
2022-08-19T02:02:24.021Z,8.70
2022-08-19T02:03:24.021Z,8.60
2022-08-19T02:04:24.028Z,8.40
2022-08-19T02:05:25.000Z,8.70
2022-08-19T02:06:26.998Z,8.80
2022-08-19T02:07:23.979Z,9.20
2022-08-19T02:08:23.990Z,8.40
2022-08-19T02:09:23.954Z,9.10
2022-08-19T02:10:23.966Z,8.60
2022-08-19T02:11:24.078Z,9.50
2022-08-19T02:12:23.906Z,8.80
2022-08-19T02:13:26.386Z,9.00
2022-08-19T02:14:23.892Z,8.80
2022-08-19T02:15:23.890Z,8.90
2022-08-19T02:16:23.894Z,8.60
2022-08-19T02:17:23.863Z,9.10
2022-08-19T02:18:27.819Z,9.20
2022-08-19T02:19:23.833Z,9.30
2022-08-19T02:20:23.851Z,9.70
2022-08-19T02:21:23.811Z,9.30
2022-08-19T02:22:23.804Z,9.40
2022-08-19T02:23:23.807Z,9.30
2022-08-19T02:24:23.914Z,8.70
2022-08-19T02:25:23.809Z,9.30
2022-08-19T02:26:23.761Z,9.50
2022-08-19T02:27:23.762Z,8.70
2022-08-19T02:28:23.752Z,8.90
2022-08-19T02:29:24.704Z,9.10
2022-08-19T02:30:23.764Z,8.70
2022-08-19T02:31:23.698Z,9.30
2022-08-19T02:32:23.697Z,9.60
2022-08-19T02:33:23.693Z,8.70
2022-08-19T02:34:23.717Z,8.70
2022-08-19T02:35:23.678Z,8.50
2022-08-19T02:36:23.704Z,8.40
2022-08-19T02:37:23.646Z,8.80
2022-08-19T02:38:23.636Z,9.60
2022-08-19T02:39:23.612Z,8.80
2022-08-19T02:40:23.603Z,9.80
2022-08-19T02:41:23.771Z,9.30
2022-08-19T02:42:23.616Z,9.40
2022-08-19T02:43:23.566Z,9.00
2022-08-19T02:44:30.900Z,9.40
2022-08-19T02:45:29.757Z,8.90
2022-08-19T02:46:23.579Z,8.20
2022-08-19T02:47:23.531Z,9.10
2022-08-19T02:48:23.508Z,8.80
2022-08-19T02:49:23.509Z,8.70
2022-08-19T02:50:23.488Z,8.90
2022-08-19T02:51:23.488Z,8.90
2022-08-19T02:52:23.540Z,8.30
2022-08-19T02:53:23.473Z,8.90
2022-08-19T02:54:23.456Z,9.00
2022-08-19T02:55:23.451Z,8.70
2022-08-19T02:56:24.415Z,9.20
2022-08-19T02:57:23.436Z,9.00
2022-08-19T02:58:23.405Z,9.20
2022-08-19T02:59:23.407Z,8.60
2022-08-19T03:00:23.383Z,8.60
2022-08-19T03:01:23.464Z,8.80
2022-08-19T03:02:23.381Z,8.80
2022-08-19T03:03:23.404Z,8.90
2022-08-19T03:04:23.372Z,8.70
2022-08-19T03:05:47.136Z,8.50
2022-08-19T03:06:24.339Z,8.80
2022-08-19T03:07:24.296Z,8.50
2022-08-19T03:08:23.306Z,8.50
2022-08-19T03:09:23.287Z,8.60
2022-08-19T03:10:23.296Z,8.80
2022-08-19T03:11:23.305Z,8.50
2022-08-19T03:12:23.309Z,8.50
2022-08-19T03:13:23.254Z,9.10
2022-08-19T03:14:23.216Z,8.70
2022-08-19T03:15:23.231Z,8.60
2022-08-19T03:16:23.238Z,8.60
2022-08-19T03:17:23.204Z,9.10
2022-08-19T03:18:23.452Z,9.20
2022-08-19T03:19:23.188Z,9.60
2022-08-19T03:20:23.178Z,8.20
2022-08-19T03:21:23.163Z,9.00
2022-08-19T03:22:23.193Z,8.50
2022-08-19T03:23:23.145Z,9.40
2022-08-19T03:24:23.140Z,8.70
2022-08-19T03:25:23.112Z,8.20
2022-08-19T03:26:23.124Z,8.40
2022-08-19T03:27:23.105Z,9.10
2022-08-19T03:28:23.111Z,8.80
2022-08-19T03:29:30.814Z,8.00
2022-08-19T03:30:24.060Z,8.60
2022-08-19T03:31:44.390Z,8.60
2022-08-19T03:32:32.551Z,8.90
2022-08-19T03:33:24.947Z,8.80
2022-08-19T03:34:23.021Z,8.30
2022-08-19T03:35:23.020Z,8.40
2022-08-19T03:36:22.985Z,8.30
2022-08-19T03:37:23.013Z,8.80
2022-08-19T03:38:22.986Z,8.60
2022-08-19T03:39:22.977Z,7.90
2022-08-19T03:40:22.935Z,8.30
2022-08-19T03:41:22.941Z,8.60
2022-08-19T03:42:32.734Z,8.20
2022-08-19T03:43:23.969Z,8.00
2022-08-19T03:44:22.910Z,8.30
2022-08-19T03:45:23.009Z,7.90
2022-08-19T03:46:22.886Z,8.30
2022-08-19T03:47:22.897Z,8.50
2022-08-19T03:48:22.861Z,8.20
2022-08-19T03:49:27.098Z,7.80
2022-08-19T03:50:23.842Z,7.90
2022-08-19T03:51:30.843Z,8.10
2022-08-19T03:52:23.858Z,8.20
2022-08-19T03:53:22.804Z,7.90
2022-08-19T03:54:22.801Z,7.30
2022-08-19T03:55:22.785Z,9.30
2022-08-19T03:56:22.814Z,8.10
2022-08-19T03:57:31.812Z,8.50
2022-08-19T03:58:23.768Z,8.20
2022-08-19T03:59:22.796Z,8.30
2022-08-19T04:00:22.734Z,8.20
2022-08-19T04:01:22.749Z,7.80
2022-08-19T04:02:23.745Z,8.10
2022-08-19T04:03:22.695Z,8.10
2022-08-19T04:04:22.692Z,8.10
2022-08-19T04:05:24.714Z,7.70
2022-08-19T04:06:23.675Z,8.30
2022-08-19T04:07:24.128Z,7.90
2022-08-19T04:08:22.680Z,8.60
2022-08-19T04:09:22.651Z,7.80
2022-08-19T04:10:22.648Z,7.90
2022-08-19T04:11:22.619Z,8.40
2022-08-19T04:12:23.623Z,8.20
2022-08-19T04:13:22.577Z,8.20
2022-08-19T04:14:22.627Z,8.60
2022-08-19T04:15:22.585Z,8.60
2022-08-19T04:16:22.608Z,8.80
2022-08-19T04:17:23.576Z,8.60
2022-08-19T04:18:22.557Z,8.60
2022-08-19T04:19:22.558Z,8.80
2022-08-19T04:20:22.529Z,9.50
2022-08-19T04:21:22.512Z,9.50
2022-08-19T04:22:22.491Z,9.50
2022-08-19T04:23:22.469Z,9.20
2022-08-19T04:24:22.475Z,9.70
2022-08-19T04:25:22.497Z,9.10
2022-08-19T04:26:22.462Z,8.60
2022-08-19T04:27:22.425Z,9.40
2022-08-19T04:28:22.422Z,10.30
2022-08-19T04:29:22.408Z,9.10
2022-08-19T04:30:22.400Z,9.70
2022-08-19T04:31:22.443Z,9.70
2022-08-19T04:32:22.380Z,9.40
2022-08-19T04:33:26.509Z,9.50
2022-08-19T04:34:23.421Z,9.70
2022-08-19T04:35:24.922Z,8.80
2022-08-19T04:36:22.346Z,9.20
2022-08-19T04:37:22.353Z,9.30
2022-08-19T04:38:22.324Z,9.50
2022-08-19T04:39:22.317Z,9.40
2022-08-19T04:40:22.304Z,9.20
2022-08-19T04:41:22.275Z,9.00
2022-08-19T04:42:22.306Z,9.10
2022-08-19T04:43:23.251Z,8.80
2022-08-19T04:44:22.254Z,9.00
2022-08-19T04:45:23.008Z,9.00
2022-08-19T04:46:38.136Z,9.30
2022-08-19T04:47:48.346Z,9.70
2022-08-19T04:48:27.007Z,9.50
2022-08-19T04:49:22.187Z,9.10
2022-08-19T04:50:22.213Z,9.80
2022-08-19T04:51:22.172Z,9.10
2022-08-19T04:52:22.206Z,8.90
2022-08-19T04:53:22.178Z,10.00
2022-08-19T04:54:37.628Z,9.10
2022-08-19T04:55:23.117Z,10.30
2022-08-19T04:56:22.133Z,9.90
2022-08-19T04:57:22.100Z,9.60
2022-08-19T04:58:22.103Z,10.20
2022-08-19T04:59:22.083Z,9.70
2022-08-19T05:00:22.099Z,10.00
2022-08-19T05:01:22.089Z,9.60
2022-08-19T05:02:22.048Z,10.30
2022-08-19T05:03:22.053Z,10.70
2022-08-19T05:04:22.022Z,11.80
2022-08-19T05:05:22.037Z,11.20
2022-08-19T05:06:22.055Z,11.40
2022-08-19T05:07:21.983Z,11.10
2022-08-19T05:08:30.746Z,11.60
2022-08-19T05:09:22.969Z,11.20
2022-08-19T05:10:21.975Z,11.30
2022-08-19T05:11:26.251Z,11.80
2022-08-19T05:12:21.983Z,11.80
2022-08-19T05:13:21.937Z,11.30
2022-08-19T05:14:21.918Z,11.30
2022-08-19T05:15:21.901Z,11.70
2022-08-19T05:16:21.887Z,11.40
2022-08-19T05:17:27.731Z,12.70
2022-08-19T05:18:22.888Z,12.50
2022-08-19T05:19:21.850Z,13.00
2022-08-19T05:20:22.007Z,12.30
2022-08-19T05:21:21.839Z,13.00
2022-08-19T05:22:21.861Z,12.40
2022-08-19T05:23:22.988Z,12.90
2022-08-19T05:24:21.828Z,13.50
2022-08-19T05:25:21.802Z,12.80
2022-08-19T05:26:21.814Z,13.20
2022-08-19T05:27:21.784Z,12.50
2022-08-19T05:28:21.760Z,12.70
2022-08-19T05:29:22.403Z,13.20
2022-08-19T05:30:33.583Z,13.20
2022-08-19T05:31:22.745Z,12.60
2022-08-19T05:32:21.741Z,13.10
2022-08-19T05:33:21.729Z,13.60
2022-08-19T05:34:21.691Z,13.50
2022-08-19T05:35:21.671Z,13.30
2022-08-19T05:36:21.691Z,13.30
2022-08-19T05:37:21.660Z,13.40
2022-08-19T05:38:21.662Z,15.00
2022-08-19T05:39:21.634Z,14.00
2022-08-19T05:40:21.663Z,13.90
2022-08-19T05:41:21.644Z,13.80
2022-08-19T05:42:21.622Z,16.60
2022-08-19T05:43:21.604Z,17.60
2022-08-19T05:44:21.581Z,14.60
2022-08-19T05:45:21.575Z,15.40
2022-08-19T05:46:27.780Z,15.80
2022-08-19T05:47:22.594Z,17.70
2022-08-19T05:48:21.537Z,18.20
2022-08-19T05:49:21.523Z,19.50
2022-08-19T05:50:21.534Z,16.10
2022-08-19T05:51:21.515Z,18.90
2022-08-19T05:52:25.580Z,17.70
2022-08-19T05:53:21.498Z,19.00
2022-08-19T05:54:21.466Z,16.60
2022-08-19T05:55:21.471Z,16.10
2022-08-19T05:56:21.493Z,17.60
2022-08-19T05:57:21.447Z,17.80
2022-08-19T05:58:23.139Z,19.80
2022-08-19T05:59:21.433Z,19.10
2022-08-19T06:00:24.579Z,21.50
2022-08-19T06:01:21.428Z,20.30
2022-08-19T06:02:21.462Z,21.70
2022-08-19T06:03:21.368Z,24.60
2022-08-19T06:04:21.369Z,25.20
2022-08-19T06:05:21.365Z,25.40
2022-08-19T06:06:21.360Z,25.60
2022-08-19T06:07:21.415Z,24.20
2022-08-19T06:08:34.304Z,26.20
2022-08-19T06:09:22.322Z,24.00
2022-08-19T06:10:21.327Z,28.20
2022-08-19T06:11:21.279Z,26.50
2022-08-19T06:12:21.263Z,27.30
2022-08-19T06:13:21.291Z,26.50
2022-08-19T06:14:21.255Z,28.30
2022-08-19T06:15:22.272Z,28.20
2022-08-19T06:16:21.220Z,26.20
2022-08-19T06:17:21.224Z,29.60
2022-08-19T06:18:21.198Z,30.40
2022-08-19T06:19:21.195Z,29.70
2022-08-19T06:20:39.818Z,32.80
2022-08-19T06:21:22.171Z,31.90
2022-08-19T06:22:21.216Z,31.60
2022-08-19T06:23:21.138Z,30.90
2022-08-19T06:24:21.163Z,31.60
2022-08-19T06:25:21.141Z,30.00
2022-08-19T06:26:21.111Z,39.30
2022-08-19T06:27:21.091Z,57.20
2022-08-19T06:28:21.594Z,43.60
2022-08-19T06:29:23.733Z,32.90
2022-08-19T06:30:21.119Z,33.80
2022-08-19T06:31:21.058Z,33.00
2022-08-19T06:32:21.028Z,33.20
2022-08-19T06:33:21.040Z,34.60
2022-08-19T06:34:21.053Z,33.90
2022-08-19T06:35:21.014Z,32.80
2022-08-19T06:36:21.025Z,34.50
2022-08-19T06:37:20.980Z,34.80
2022-08-19T06:38:21.008Z,33.80
2022-08-19T06:39:20.978Z,33.60
2022-08-19T06:40:21.071Z,35.30
2022-08-19T06:41:20.954Z,34.50
2022-08-19T06:42:21.698Z,32.70
2022-08-19T06:43:20.922Z,34.30
2022-08-19T06:44:21.940Z,36.00
2022-08-19T06:45:20.910Z,34.70
2022-08-19T06:46:20.922Z,35.30
2022-08-19T06:47:23.787Z,35.70
2022-08-19T06:48:21.874Z,35.60
2022-08-19T06:49:20.870Z,35.60
2022-08-19T06:50:20.863Z,35.50
2022-08-19T06:51:20.885Z,35.50
2022-08-19T06:52:20.834Z,33.50
2022-08-19T06:53:20.821Z,34.30
2022-08-19T06:54:20.800Z,36.40
2022-08-19T06:55:20.812Z,35.10
2022-08-19T06:56:20.788Z,34.80
2022-08-19T06:57:20.778Z,34.60
2022-08-19T06:58:20.772Z,34.40
2022-08-19T06:59:20.746Z,33.90
2022-08-19T07:00:20.793Z,35.00
2022-08-19T07:01:20.734Z,35.10
2022-08-19T07:02:20.724Z,35.10
2022-08-19T07:03:20.721Z,34.80
2022-08-19T07:04:20.712Z,34.70
2022-08-19T07:05:20.707Z,35.20
2022-08-19T07:06:43.158Z,35.70
2022-08-19T07:07:22.009Z,35.50
2022-08-19T07:08:20.689Z,34.70
2022-08-19T07:09:20.656Z,36.20
2022-08-19T07:10:20.667Z,35.10
2022-08-19T07:11:20.627Z,36.60
2022-08-19T07:12:20.668Z,35.70
2022-08-19T07:13:20.613Z,36.90
2022-08-19T07:14:20.601Z,36.60
2022-08-19T07:15:20.556Z,36.40
2022-08-19T07:16:21.693Z,34.80
2022-08-19T07:17:21.577Z,37.00
2022-08-19T07:18:20.536Z,36.60
2022-08-19T07:19:20.527Z,35.60
2022-08-19T07:20:20.523Z,37.10
2022-08-19T07:21:20.504Z,36.70
2022-08-19T07:22:20.558Z,36.60
2022-08-19T07:23:20.517Z,35.80
2022-08-19T07:24:20.471Z,37.90
2022-08-19T07:25:20.548Z,34.70
2022-08-19T07:26:21.466Z,34.80
2022-08-19T07:27:25.107Z,31.90
2022-08-19T07:28:24.292Z,30.90
2022-08-19T07:29:20.412Z,29.40
2022-08-19T07:30:20.408Z,29.30
2022-08-19T07:31:23.080Z,29.30
2022-08-19T07:32:20.379Z,29.50
2022-08-19T07:33:20.419Z,28.70
2022-08-19T07:34:20.382Z,28.80
2022-08-19T07:35:20.504Z,28.20
2022-08-19T07:36:20.381Z,25.50
2022-08-19T07:37:20.328Z,23.90
2022-08-19T07:38:20.351Z,22.70
2022-08-19T07:39:20.301Z,21.30
2022-08-19T07:40:20.327Z,21.40
2022-08-19T07:41:20.284Z,21.70
2022-08-19T07:42:20.283Z,20.70
2022-08-19T07:43:20.267Z,19.90
2022-08-19T07:44:20.295Z,21.80
2022-08-19T07:45:20.308Z,21.50
2022-08-19T07:46:20.246Z,20.90
2022-08-19T07:47:48.734Z,20.50
2022-08-19T07:48:21.206Z,20.20
2022-08-19T07:49:20.229Z,20.40
2022-08-19T07:50:20.279Z,21.00
2022-08-19T07:51:36.146Z,20.70
2022-08-19T07:52:21.164Z,20.70
2022-08-19T07:53:20.163Z,20.20
2022-08-19T07:54:20.166Z,21.70
2022-08-19T07:55:43.256Z,21.80
2022-08-19T07:56:21.117Z,21.00
2022-08-19T07:57:20.129Z,19.40
2022-08-19T07:58:20.097Z,19.90
2022-08-19T07:59:20.101Z,18.20
2022-08-19T08:00:23.195Z,19.70
2022-08-19T08:01:20.145Z,19.50
2022-08-19T08:02:20.070Z,19.80
2022-08-19T08:03:20.081Z,20.00
2022-08-19T08:04:20.031Z,18.80
2022-08-19T08:05:20.030Z,18.60
2022-08-19T08:06:20.012Z,18.40
2022-08-19T08:07:20.001Z,18.90
2022-08-19T08:08:19.989Z,18.60
2022-08-19T08:10:20.794Z,18.20
2022-08-19T08:11:20.700Z,17.20
2022-08-19T08:12:33.651Z,17.20
2022-08-19T08:13:20.985Z,17.40
2022-08-19T08:14:29.043Z,18.30
2022-08-19T08:15:20.936Z,18.00
2022-08-19T08:16:19.933Z,16.60
2022-08-19T08:17:40.975Z,16.90
2022-08-19T08:18:20.896Z,16.80
2022-08-19T08:19:25.785Z,15.90
2022-08-19T08:20:20.868Z,16.30
2022-08-19T08:21:19.858Z,16.70
2022-08-19T08:22:19.876Z,16.40
2022-08-19T08:23:19.849Z,16.90
2022-08-19T08:24:19.820Z,17.60
2022-08-19T08:25:19.806Z,17.60
2022-08-19T08:26:19.839Z,17.60
2022-08-19T08:27:21.684Z,18.40
2022-08-19T08:28:20.780Z,18.60
2022-08-19T08:29:19.759Z,16.90
2022-08-19T08:30:19.772Z,19.10
2022-08-19T08:31:19.755Z,17.80
2022-08-19T08:32:19.730Z,17.30
2022-08-19T08:33:19.738Z,16.70
2022-08-19T08:34:20.726Z,18.00
2022-08-19T08:35:19.712Z,17.80
2022-08-19T08:36:19.702Z,16.50
2022-08-19T08:37:19.692Z,16.40
2022-08-19T08:38:19.674Z,16.90
2022-08-19T08:39:19.682Z,16.90
2022-08-19T08:40:19.700Z,17.10
2022-08-19T08:41:19.635Z,15.70
2022-08-19T08:42:19.621Z,15.30
2022-08-19T08:43:19.658Z,17.30
2022-08-19T08:44:20.216Z,15.90
2022-08-19T08:45:19.590Z,17.10
2022-08-19T08:46:30.669Z,16.80
2022-08-19T08:47:20.563Z,19.10
2022-08-19T08:48:23.923Z,18.20
2022-08-19T08:49:19.567Z,19.70
2022-08-19T08:50:19.581Z,19.30
2022-08-19T08:51:20.435Z,19.70
2022-08-19T08:52:19.522Z,19.70
2022-08-19T08:53:29.665Z,17.60
2022-08-19T08:54:20.594Z,18.00
2022-08-19T08:55:20.337Z,17.00
2022-08-19T08:56:19.490Z,16.90
2022-08-19T08:57:19.452Z,16.80
2022-08-19T08:58:19.438Z,19.90
2022-08-19T08:59:19.439Z,20.20
2022-08-19T09:00:19.574Z,20.30
2022-08-19T09:01:19.556Z,20.20
2022-08-19T09:02:19.412Z,19.60
2022-08-19T09:03:19.391Z,22.10
2022-08-19T09:04:19.395Z,21.20
2022-08-19T09:05:19.380Z,23.30
2022-08-19T09:06:19.384Z,23.90
2022-08-19T09:07:35.231Z,22.50
2022-08-19T09:08:20.338Z,21.80
2022-08-19T09:09:19.685Z,20.90
2022-08-19T09:10:19.306Z,20.70
2022-08-19T09:11:41.994Z,21.50
2022-08-19T09:12:20.318Z,19.50
2022-08-19T09:13:20.285Z,19.00
2022-08-19T09:14:47.288Z,18.40
2022-08-19T09:15:20.295Z,18.10
2022-08-19T09:16:21.116Z,18.00
2022-08-19T09:17:19.474Z,18.60
2022-08-19T09:18:19.641Z,17.70
2022-08-19T09:19:22.441Z,17.00
2022-08-19T09:20:19.197Z,16.90
2022-08-19T09:21:21.869Z,17.10
2022-08-19T09:22:25.409Z,16.80
2022-08-19T09:23:26.816Z,17.80
2022-08-19T09:24:20.161Z,17.00
2022-08-19T09:25:27.090Z,17.90
2022-08-19T09:26:20.148Z,17.00
2022-08-19T09:27:19.128Z,17.40
2022-08-19T09:28:22.567Z,16.70
2022-08-19T09:29:20.102Z,16.00
2022-08-19T09:30:19.129Z,14.80
2022-08-19T09:31:19.126Z,18.80
2022-08-19T09:32:26.664Z,16.90
2022-08-19T09:33:20.106Z,17.00
2022-08-19T09:34:21.183Z,19.10
2022-08-19T09:35:19.055Z,18.10
2022-08-19T09:36:21.759Z,18.90
2022-08-19T09:37:20.024Z,18.60
2022-08-19T09:38:19.022Z,18.60
2022-08-19T09:39:18.986Z,18.70
2022-08-19T09:40:19.096Z,18.30
2022-08-19T09:41:18.995Z,21.00
2022-08-19T09:42:20.308Z,21.70
2022-08-19T09:43:33.215Z,23.60
2022-08-19T09:44:19.937Z,20.90
2022-08-19T09:45:18.919Z,19.90
2022-08-19T09:46:18.951Z,19.10
2022-08-19T09:47:20.092Z,20.00
2022-08-19T09:48:19.150Z,19.60
2022-08-19T09:49:18.883Z,19.30
2022-08-19T09:50:18.884Z,19.20
2022-08-19T09:51:18.899Z,18.90
2022-08-19T09:52:18.889Z,19.40
2022-08-19T09:53:18.869Z,18.80
2022-08-19T09:54:23.451Z,19.90
2022-08-19T09:55:19.832Z,21.20
2022-08-19T09:56:18.821Z,18.90
2022-08-19T09:57:18.806Z,19.70
2022-08-19T09:58:20.531Z,18.50
2022-08-19T09:59:19.805Z,19.30
2022-08-19T10:00:18.766Z,19.40
2022-08-19T10:01:18.788Z,20.20
2022-08-19T10:02:22.188Z,19.10
2022-08-19T10:03:18.774Z,18.90
2022-08-19T10:04:20.255Z,19.60
2022-08-19T10:05:26.616Z,18.20
2022-08-19T10:06:19.752Z,18.50
2022-08-19T10:07:19.743Z,17.80
2022-08-19T10:08:18.676Z,19.00
2022-08-19T10:09:18.676Z,17.80
2022-08-19T10:10:19.655Z,19.30
2022-08-19T10:11:27.765Z,17.40
2022-08-19T10:12:20.168Z,16.50
2022-08-19T10:13:18.639Z,17.80
2022-08-19T10:14:18.608Z,17.00
2022-08-19T10:15:18.654Z,17.60
2022-08-19T10:16:19.599Z,17.40
2022-08-19T10:17:20.773Z,16.90
2022-08-19T10:18:18.585Z,15.60
2022-08-19T10:19:25.710Z,15.70
2022-08-19T10:20:19.574Z,16.70
2022-08-19T10:21:18.537Z,17.20
2022-08-19T10:22:18.511Z,16.60
2022-08-19T10:23:18.504Z,15.30
2022-08-19T10:24:18.588Z,15.80
2022-08-19T10:25:18.786Z,15.00
2022-08-19T10:26:18.532Z,15.30
2022-08-19T10:27:18.629Z,15.40
2022-08-19T10:28:19.279Z,16.40
2022-08-19T10:29:32.748Z,16.20
2022-08-19T10:30:20.152Z,14.60
2022-08-19T10:31:18.426Z,16.00
2022-08-19T10:32:18.426Z,15.00
2022-08-19T10:33:38.608Z,14.20
2022-08-19T10:34:27.507Z,14.60
2022-08-19T10:35:22.094Z,14.60
2022-08-19T10:36:18.373Z,13.50
2022-08-19T10:37:28.860Z,14.10
2022-08-19T10:38:19.358Z,13.30
2022-08-19T10:39:19.359Z,13.20
2022-08-19T10:40:18.415Z,13.30
2022-08-19T10:41:18.367Z,14.40
2022-08-19T10:42:18.287Z,15.80
2022-08-19T10:43:18.300Z,15.70
2022-08-19T10:44:18.273Z,14.90
2022-08-19T10:45:18.273Z,15.30
2022-08-19T10:46:18.303Z,13.10
2022-08-19T10:47:25.852Z,13.20
2022-08-19T10:48:19.562Z,13.40
2022-08-19T10:49:18.223Z,12.70
2022-08-19T10:50:18.209Z,13.10
2022-08-19T10:51:22.790Z,13.30
2022-08-19T10:52:18.641Z,13.40
2022-08-19T10:53:18.192Z,13.60
2022-08-19T10:54:29.545Z,13.30
2022-08-19T10:55:19.166Z,15.00
2022-08-19T10:56:18.460Z,14.60
2022-08-19T10:57:18.173Z,14.10
2022-08-19T10:58:18.144Z,14.80
2022-08-19T10:59:18.126Z,13.50
2022-08-19T11:00:18.094Z,12.20
2022-08-19T11:01:18.150Z,12.40
2022-08-19T11:02:18.070Z,14.20
2022-08-19T11:03:18.164Z,13.70
2022-08-19T11:04:18.074Z,12.40
2022-08-19T11:05:18.066Z,10.60
2022-08-19T11:06:18.031Z,11.20
2022-08-19T11:07:18.092Z,12.20
2022-08-19T11:08:23.012Z,11.00
2022-08-19T11:09:19.028Z,11.50
2022-08-19T11:10:21.366Z,10.30
2022-08-19T11:11:17.983Z,9.80
2022-08-19T11:12:18.020Z,10.20
2022-08-19T11:13:17.966Z,9.10
2022-08-19T11:14:17.999Z,10.20
2022-08-19T11:15:17.956Z,9.10
2022-08-19T11:16:17.927Z,9.10
2022-08-19T11:17:17.919Z,9.30
2022-08-19T11:18:17.911Z,9.10
2022-08-19T11:19:17.895Z,10.00
2022-08-19T11:20:17.949Z,9.50
2022-08-19T11:21:17.872Z,8.50
2022-08-19T11:22:19.538Z,7.90
2022-08-19T11:23:17.853Z,7.10
2022-08-19T11:24:17.838Z,7.50
2022-08-19T11:25:17.859Z,7.40
2022-08-19T11:26:17.806Z,6.70
2022-08-19T11:27:17.827Z,7.50
2022-08-19T11:28:17.815Z,7.50
2022-08-19T11:29:17.784Z,7.20
2022-08-19T11:30:17.766Z,6.70
2022-08-19T11:31:17.770Z,7.80
2022-08-19T11:32:17.754Z,8.20
2022-08-19T11:33:17.800Z,7.90
2022-08-19T11:34:17.726Z,8.50
2022-08-19T11:35:17.711Z,6.90
2022-08-19T11:36:17.705Z,6.50
2022-08-19T11:37:17.745Z,7.00
2022-08-19T11:38:17.696Z,6.50
2022-08-19T11:39:17.713Z,6.60
2022-08-19T11:40:18.511Z,8.90
2022-08-19T11:41:17.656Z,8.90
2022-08-19T11:42:17.874Z,8.50
2022-08-19T11:43:17.661Z,7.80
2022-08-19T11:44:17.679Z,7.80
2022-08-19T11:45:17.618Z,6.90
2022-08-19T11:46:17.614Z,6.50
2022-08-19T11:47:17.612Z,6.70
2022-08-19T11:48:17.606Z,5.90
2022-08-19T11:49:17.566Z,6.60
2022-08-19T11:50:17.604Z,7.00
2022-08-19T11:51:17.738Z,8.00
2022-08-19T11:52:17.555Z,7.80
2022-08-19T11:53:17.555Z,8.20
2022-08-19T11:54:17.564Z,8.70
2022-08-19T11:55:17.516Z,8.40
2022-08-19T11:56:17.490Z,7.20
2022-08-19T11:57:17.603Z,6.20
2022-08-19T11:58:18.909Z,6.50
2022-08-19T11:59:17.545Z,6.30
2022-08-19T12:00:17.481Z,6.10
2022-08-19T12:01:17.483Z,5.90
2022-08-19T12:02:17.442Z,5.60
2022-08-19T12:03:17.445Z,5.90
2022-08-19T12:04:17.429Z,6.60
2022-08-19T12:05:17.408Z,6.30
2022-08-19T12:06:17.399Z,5.90
2022-08-19T12:07:17.406Z,6.00
2022-08-19T12:08:17.405Z,5.40
2022-08-19T12:09:17.380Z,5.70
2022-08-19T12:10:18.435Z,5.20
2022-08-19T12:11:17.362Z,5.60
2022-08-19T12:12:17.338Z,5.70
2022-08-19T12:13:17.308Z,5.70
2022-08-19T12:14:17.339Z,7.60
2022-08-19T12:15:17.334Z,7.00
2022-08-19T12:16:17.320Z,9.20
2022-08-19T12:17:17.275Z,9.00
2022-08-19T12:18:17.295Z,8.60
2022-08-19T12:19:22.172Z,8.80
2022-08-19T12:20:18.297Z,6.80
2022-08-19T12:21:17.252Z,7.10
2022-08-19T12:22:17.213Z,7.10
2022-08-19T12:23:17.214Z,6.60
2022-08-19T12:24:17.221Z,6.10
2022-08-19T12:25:17.200Z,5.80
2022-08-19T12:26:17.219Z,5.90
2022-08-19T12:27:35.754Z,5.60
2022-08-19T12:28:18.174Z,5.60
2022-08-19T12:29:20.431Z,5.70
2022-08-19T12:30:18.150Z,5.20
2022-08-19T12:31:17.111Z,5.80
2022-08-19T12:32:17.137Z,5.40
2022-08-19T12:33:17.092Z,5.00
2022-08-19T12:34:17.090Z,5.00
2022-08-19T12:35:17.141Z,5.60
2022-08-19T12:36:17.074Z,5.20
2022-08-19T12:37:17.048Z,5.30
2022-08-19T12:38:17.343Z,5.20
2022-08-19T12:39:17.045Z,4.20
2022-08-19T12:40:17.130Z,4.50
2022-08-19T12:41:17.052Z,4.60
2022-08-19T12:42:17.066Z,5.00
2022-08-19T12:43:17.137Z,5.90
2022-08-19T12:44:17.087Z,5.10
2022-08-19T12:45:16.967Z,5.10
2022-08-19T12:46:16.989Z,5.50
2022-08-19T12:47:16.961Z,5.00
2022-08-19T12:48:32.819Z,5.60
2022-08-19T12:49:51.902Z,5.40
2022-08-19T12:50:18.227Z,4.80
2022-08-19T12:51:16.910Z,5.00
2022-08-19T12:52:16.922Z,4.60
2022-08-19T12:53:17.884Z,4.70
2022-08-19T12:54:16.891Z,4.60
2022-08-19T12:55:16.901Z,4.80
2022-08-19T12:56:19.989Z,5.20
2022-08-19T12:57:17.858Z,4.50
2022-08-19T12:58:16.852Z,4.30
2022-08-19T12:59:16.832Z,4.20
2022-08-19T13:00:16.821Z,4.60
2022-08-19T13:01:17.582Z,4.50
2022-08-19T13:02:17.815Z,3.80
2022-08-19T13:03:17.760Z,4.30
2022-08-19T13:04:16.777Z,4.00
2022-08-19T13:05:16.788Z,4.00
2022-08-19T13:06:19.464Z,4.10